Wrocław, Polska

17:13 CEST dnia 24-kwiecień-2017 (GMT +0200)
Strachowice | | Change Station

Wysokość 397 ft 51.10 °N, 16.88 °E | Updated 13 minutes ago

Clear
pogodnie
55 ° F
Odczuwalna 55 ° F
Płn.
12
Wiatr zmienny Wiatr od PdPdZd

Dziś
Wysoka -- | Niska -- ° F
--% Prawdop. opadów
Wczoraj
Wysoka -- | Niska -- ° F
Precip. -- cali
Ciśnienie 29.92 cali
Widzialność -9999.0 mil
chmury
Punkt rosy 30 ° F
Wilgotność 38%
Opady deszczu 0.00 cali
grubość pokrywy śnieżnej Niedostępne.
5:38 AM 8:03 PM
Zmniejszający się sierp Księżyca, 5% visible
METAR EPWR 241500Z 21010KT 170V250 CAVOK 13/M01 Q1013
Ciśnienie 29.92 cali
Widzialność -9999.0 mil
chmury
Punkt rosy 30 ° F
Wilgotność 38%
Opady deszczu 0.00 cali
grubość pokrywy śnieżnej Niedostępne.
5:38 AM 8:03 PM
Zmniejszający się sierp Księżyca, 5% visible
METAR EPWR 241500Z 21010KT 170V250 CAVOK 13/M01 Q1013

Get Severe Weather Alerts

Thanks for signing up!

Be on the lookout for a verification email in your inbox.

You'll start receiving the daily forecast at 8 AM.

×

10-Day Weather Forecast

×

Almanac

Astronomia

Apr. 24, 2017 Wschód Zachów
Aktualny czas
Zmierzch cywilny
Zmierzch żeglarski
świt/zmierzch astronomiczny
Księżyc
całkowite oświetlenie
Długość dnia
Tomorrow will be .
, % of the Moon is Illuminated

Dzisiejsze ekstrema

Country Highs Country Lows

Community

WunderPhotos

WunderBlog® & News

Nearby

Jakość powietrza

  Jakość powietrza czynnik AQ Zanieczyszczenie
Not available.

Głębokość pokrywy śnieżnej

Station Depth n.p.m.

Aktywność sejsmiczna

Miejscowość Distance Mag. Time & Date
Minimum magnitude displayed is 2.5.

Temperatury wody na wybrzeżu

Miejsce Temperatura

Stations

Najbliższa stacja pogodowa

Lokalizacja stacji Temp. czynnik chłodzący wiatru Punkt rosy Wilgotność Wiatr Precip. Wysokość Uaktualniono Typ